createdAt,value
2022-12-11T00:01:33.343Z,84.80
2022-12-11T00:04:00.086Z,83.90
2022-12-11T00:06:26.659Z,76.40
2022-12-11T00:08:54.281Z,86.10
2022-12-11T00:11:21.772Z,76.90
2022-12-11T00:13:48.414Z,89.40
2022-12-11T00:16:15.339Z,78.90
2022-12-11T00:18:42.046Z,70.80
2022-12-11T00:21:12.107Z,70.30
2022-12-11T00:23:38.704Z,70.30
2022-12-11T00:26:07.185Z,81.40
2022-12-11T00:28:33.869Z,71.80
2022-12-11T00:31:05.023Z,70.30
2022-12-11T00:33:31.628Z,73.90
2022-12-11T00:35:58.545Z,75.50
2022-12-11T00:38:25.823Z,75.90
2022-12-11T00:40:52.553Z,79.80
2022-12-11T00:43:22.042Z,67.60
2022-12-11T00:45:48.544Z,75.70
2022-12-11T00:48:15.061Z,67.60
2022-12-11T00:50:41.778Z,75.60
2022-12-11T00:53:08.543Z,71.80
2022-12-11T00:55:39.930Z,71.60
2022-12-11T00:58:06.492Z,68.60
2022-12-11T01:00:33.929Z,75.50
2022-12-11T01:03:00.700Z,70.50
2022-12-11T01:05:27.534Z,71.40
2022-12-11T01:07:54.165Z,76.20
2022-12-11T01:10:24.373Z,66.00
2022-12-11T01:12:56.917Z,75.90
2022-12-11T01:15:26.748Z,68.60
2022-12-11T01:17:53.623Z,71.70
2022-12-11T01:20:21.732Z,74.50
2022-12-11T01:22:49.306Z,69.60
2022-12-11T01:25:15.782Z,67.90
2022-12-11T01:27:42.245Z,68.40
2022-12-11T01:30:13.792Z,72.50
2022-12-11T01:32:40.297Z,59.40
2022-12-11T01:35:07.971Z,64.10
2022-12-11T01:37:34.715Z,65.10
2022-12-11T01:40:01.546Z,62.60
2022-12-11T01:42:29.009Z,74.70
2022-12-11T01:45:27.306Z,76.00
2022-12-11T01:48:05.016Z,59.70
2022-12-11T01:50:35.184Z,60.60
2022-12-11T01:53:03.840Z,70.50
2022-12-11T01:55:31.779Z,74.50
2022-12-11T01:57:58.501Z,66.60
2022-12-11T02:00:25.043Z,67.10
2022-12-11T02:05:18.797Z,59.20
2022-12-11T02:07:48.107Z,58.10
2022-12-11T02:10:15.003Z,58.50
2022-12-11T02:12:46.502Z,62.30
2022-12-11T02:15:41.335Z,71.80
2022-12-11T02:18:40.209Z,63.20
2022-12-11T02:21:14.787Z,53.10
2022-12-11T02:24:12.085Z,62.90
2022-12-11T02:26:56.151Z,62.20
2022-12-11T02:29:33.199Z,58.90
2022-12-11T02:32:14.526Z,57.00
2022-12-11T02:34:44.537Z,55.40
2022-12-11T02:37:16.772Z,61.30
2022-12-11T02:39:44.018Z,55.90
2022-12-11T02:44:37.823Z,52.30
2022-12-11T02:47:06.817Z,54.00
2022-12-11T02:49:33.448Z,73.80
2022-12-11T02:52:03.825Z,56.40
2022-12-11T02:54:32.971Z,58.80
2022-12-11T02:57:16.958Z,58.60
2022-12-11T02:59:45.331Z,63.00
2022-12-11T03:02:14.202Z,66.50
2022-12-11T03:04:41.631Z,62.60
2022-12-11T03:07:22.759Z,66.90
2022-12-11T03:09:51.849Z,56.10
2022-12-11T03:12:20.655Z,57.80
2022-12-11T03:14:48.355Z,58.00
2022-12-11T03:17:18.942Z,60.70
2022-12-11T03:20:12.873Z,56.60
2022-12-11T03:22:51.734Z,69.20
2022-12-11T03:25:25.089Z,60.40
2022-12-11T03:28:24.946Z,62.00
2022-12-11T03:30:53.138Z,65.30
2022-12-11T03:33:25.135Z,48.90
2022-12-11T03:35:58.903Z,57.80
2022-12-11T03:38:31.319Z,64.30
2022-12-11T03:41:00.792Z,60.30
2022-12-11T03:43:28.547Z,60.40
2022-12-11T03:45:55.443Z,57.70
2022-12-11T03:48:22.875Z,63.80
2022-12-11T03:53:19.207Z,53.30
2022-12-11T03:55:45.770Z,67.30
2022-12-11T03:58:12.220Z,66.30
2022-12-11T04:00:38.729Z,66.90
2022-12-11T04:03:13.970Z,58.00
2022-12-11T04:05:47.730Z,56.40
2022-12-11T04:08:15.215Z,51.30
2022-12-11T04:10:42.412Z,54.90
2022-12-11T04:15:36.257Z,55.00
2022-12-11T04:21:06.970Z,57.50
2022-12-11T04:26:20.513Z,58.30
2022-12-11T04:28:47.839Z,54.80
2022-12-11T04:31:19.560Z,74.60
2022-12-11T04:33:46.833Z,68.70
2022-12-11T04:36:13.913Z,55.30
2022-12-11T04:38:40.986Z,49.00
2022-12-11T04:41:11.323Z,57.10
2022-12-11T04:43:37.853Z,58.10
2022-12-11T04:46:25.312Z,64.10
2022-12-11T04:48:57.315Z,58.90
2022-12-11T04:51:24.675Z,51.50
2022-12-11T04:53:51.523Z,57.00
2022-12-11T04:56:18.767Z,54.90
2022-12-11T05:01:17.419Z,54.00
2022-12-11T05:03:45.403Z,56.90
2022-12-11T05:06:12.592Z,60.10
2022-12-11T05:08:40.313Z,58.90
2022-12-11T05:11:09.474Z,49.10
2022-12-11T05:13:36.183Z,48.60
2022-12-11T05:16:05.332Z,50.40
2022-12-11T05:18:32.394Z,50.50
2022-12-11T05:21:01.350Z,47.90
2022-12-11T05:23:28.698Z,47.40
2022-12-11T05:25:58.063Z,48.50
2022-12-11T05:28:26.683Z,48.20
2022-12-11T05:30:58.004Z,42.00
2022-12-11T05:33:25.231Z,43.20
2022-12-11T05:35:52.187Z,52.80
2022-12-11T05:38:18.704Z,49.30
2022-12-11T05:40:46.285Z,48.30
2022-12-11T05:43:12.650Z,55.40
2022-12-11T05:45:39.271Z,52.80
2022-12-11T05:48:06.046Z,38.10
2022-12-11T05:50:32.636Z,45.50
2022-12-11T05:52:59.149Z,39.70
2022-12-11T05:55:25.648Z,43.70
2022-12-11T05:57:52.995Z,47.00
2022-12-11T06:00:19.601Z,41.90
2022-12-11T06:02:46.942Z,45.50
2022-12-11T06:05:13.797Z,40.90
2022-12-11T06:07:40.304Z,43.40
2022-12-11T06:10:07.238Z,40.20
2022-12-11T06:12:34.080Z,48.40
2022-12-11T06:15:00.662Z,42.00
2022-12-11T06:17:27.321Z,34.60
2022-12-11T06:19:53.682Z,60.10
2022-12-11T06:22:20.158Z,48.70
2022-12-11T06:24:47.422Z,40.60
2022-12-11T06:27:14.136Z,41.50
2022-12-11T06:29:40.537Z,45.60
2022-12-11T06:32:07.388Z,31.20
2022-12-11T06:34:33.773Z,48.40
2022-12-11T06:37:00.625Z,49.10
2022-12-11T06:39:27.533Z,42.20
2022-12-11T06:41:53.911Z,41.60
2022-12-11T06:44:20.607Z,40.10
2022-12-11T06:46:47.180Z,41.10
2022-12-11T06:49:13.651Z,39.70
2022-12-11T06:51:40.164Z,47.20
2022-12-11T06:54:06.630Z,39.20
2022-12-11T06:56:34.214Z,48.30
2022-12-11T06:59:06.973Z,48.40
2022-12-11T07:01:34.360Z,40.90
2022-12-11T07:04:00.764Z,43.70
2022-12-11T07:06:27.914Z,38.70
2022-12-11T07:08:54.506Z,39.10
2022-12-11T07:11:21.658Z,45.80
2022-12-11T07:16:16.979Z,42.10
2022-12-11T07:18:47.444Z,41.40
2022-12-11T07:21:14.357Z,40.80
2022-12-11T07:23:41.481Z,36.90
2022-12-11T07:28:35.530Z,36.20
2022-12-11T07:31:06.900Z,44.60
2022-12-11T07:33:33.892Z,39.20
2022-12-11T07:36:05.324Z,40.70
2022-12-11T07:38:32.497Z,36.30
2022-12-11T07:41:07.755Z,52.00
2022-12-11T07:43:34.598Z,42.60
2022-12-11T07:46:06.276Z,38.00
2022-12-11T07:48:36.250Z,35.50
2022-12-11T07:51:29.901Z,38.60
2022-12-11T07:54:02.331Z,39.70
2022-12-11T07:56:30.035Z,40.30
2022-12-11T07:59:02.276Z,42.50
2022-12-11T08:01:42.885Z,37.40
2022-12-11T08:04:11.096Z,41.30
2022-12-11T08:06:39.361Z,40.90
2022-12-11T08:09:08.085Z,40.10
2022-12-11T08:11:34.932Z,37.90
2022-12-11T08:14:01.976Z,37.90
2022-12-11T08:16:28.940Z,33.50
2022-12-11T08:18:55.381Z,36.50
2022-12-11T08:21:24.437Z,30.00
2022-12-11T08:23:52.116Z,38.90
2022-12-11T08:26:23.976Z,32.00
2022-12-11T08:28:51.052Z,32.00
2022-12-11T08:31:19.261Z,39.80
2022-12-11T08:33:46.511Z,36.40
2022-12-11T08:38:40.806Z,33.10
2022-12-11T08:41:08.637Z,35.10
2022-12-11T08:43:36.329Z,32.20
2022-12-11T08:46:03.871Z,38.90
2022-12-11T08:48:30.569Z,38.00
2022-12-11T08:51:05.302Z,36.00
2022-12-11T08:53:32.828Z,36.00
2022-12-11T08:56:08.283Z,33.10
2022-12-11T08:58:35.219Z,34.80
2022-12-11T09:01:20.904Z,29.40
2022-12-11T09:03:48.941Z,27.00
2022-12-11T09:06:18.027Z,30.50
2022-12-11T09:08:51.683Z,32.70
2022-12-11T09:11:22.501Z,34.50
2022-12-11T09:13:49.299Z,34.20
2022-12-11T09:16:18.542Z,28.40
2022-12-11T09:18:47.319Z,33.60
2022-12-11T09:21:17.039Z,34.00
2022-12-11T09:23:44.049Z,28.80
2022-12-11T09:28:44.435Z,34.00
2022-12-11T09:31:23.039Z,37.00
2022-12-11T09:33:51.451Z,35.30
2022-12-11T09:36:18.513Z,26.70
2022-12-11T09:38:45.596Z,34.10
2022-12-11T09:41:21.502Z,29.50
2022-12-11T09:43:53.866Z,25.70
2022-12-11T09:46:24.439Z,28.10
2022-12-11T09:48:53.080Z,30.80
2022-12-11T09:51:26.219Z,28.20
2022-12-11T09:53:54.527Z,29.20
2022-12-11T09:56:20.977Z,26.80
2022-12-11T09:58:56.886Z,34.00
2022-12-11T10:01:43.097Z,33.60
2022-12-11T10:04:28.792Z,30.70
2022-12-11T10:07:32.784Z,33.30
2022-12-11T10:10:36.556Z,29.80
2022-12-11T10:13:21.840Z,28.10
2022-12-11T10:15:54.125Z,25.40
2022-12-11T10:18:23.827Z,40.30
2022-12-11T10:20:52.196Z,32.90
2022-12-11T10:23:27.778Z,30.10
2022-12-11T10:26:07.840Z,28.40
2022-12-11T10:28:34.926Z,27.00
2022-12-11T10:31:07.290Z,25.50
2022-12-11T10:33:41.267Z,26.90
2022-12-11T10:36:08.720Z,26.20
2022-12-11T10:38:42.187Z,25.40
2022-12-11T10:41:15.577Z,26.80
2022-12-11T10:43:48.131Z,21.10
2022-12-11T10:46:27.139Z,29.00
2022-12-11T10:49:04.052Z,28.40
2022-12-11T10:51:37.204Z,28.20
2022-12-11T10:55:01.177Z,22.20
2022-12-11T10:57:32.410Z,26.80
2022-12-11T10:59:59.682Z,22.90
2022-12-11T11:02:28.970Z,23.20
2022-12-11T11:04:58.002Z,24.30
2022-12-11T11:07:27.425Z,23.10
2022-12-11T11:10:09.638Z,22.60
2022-12-11T11:12:42.465Z,22.20
2022-12-11T11:15:17.668Z,18.90
2022-12-11T11:17:54.650Z,23.30
2022-12-11T11:20:28.520Z,20.60
2022-12-11T11:23:04.043Z,22.80
2022-12-11T11:25:32.717Z,35.60
2022-12-11T11:28:01.823Z,27.80
2022-12-11T11:30:31.065Z,24.70
2022-12-11T11:33:18.735Z,28.00
2022-12-11T11:36:25.586Z,25.80
2022-12-11T11:39:14.403Z,26.00
2022-12-11T11:41:53.566Z,27.30
2022-12-11T11:44:29.411Z,23.00
2022-12-11T11:47:04.959Z,26.10
2022-12-11T11:49:50.224Z,21.30
2022-12-11T11:52:38.735Z,27.20
2022-12-11T11:55:44.082Z,23.60
2022-12-11T11:58:15.837Z,24.70
2022-12-11T12:00:42.976Z,23.10
2022-12-11T12:05:53.724Z,22.10
2022-12-11T12:08:43.878Z,24.80
2022-12-11T12:11:42.388Z,23.90
2022-12-11T12:14:51.642Z,24.10
2022-12-11T12:17:56.545Z,19.80
2022-12-11T12:23:01.705Z,21.70
2022-12-11T12:25:40.096Z,16.80
2022-12-11T12:28:37.565Z,20.40
2022-12-11T12:34:34.787Z,23.40
2022-12-11T12:37:05.929Z,19.80
2022-12-11T12:43:05.857Z,19.80
2022-12-11T12:46:13.473Z,26.00
2022-12-11T12:48:40.051Z,21.60
2022-12-11T12:51:08.261Z,23.80
2022-12-11T12:53:36.905Z,25.40
2022-12-11T12:56:04.327Z,23.60
2022-12-11T12:58:42.271Z,24.30
2022-12-11T13:01:11.779Z,23.80
2022-12-11T13:04:02.474Z,28.80
2022-12-11T13:06:50.984Z,22.30
2022-12-11T13:09:21.323Z,18.40
2022-12-11T13:11:53.957Z,24.90
2022-12-11T13:14:20.522Z,18.60
2022-12-11T13:16:49.587Z,21.40
2022-12-11T13:19:23.317Z,22.70
2022-12-11T13:22:11.561Z,21.80
2022-12-11T13:24:49.511Z,19.60
2022-12-11T13:27:35.596Z,23.30
2022-12-11T13:30:14.052Z,17.60
2022-12-11T13:32:49.563Z,17.70
2022-12-11T13:35:17.021Z,16.70
2022-12-11T13:37:44.887Z,16.90
2022-12-11T13:40:24.507Z,17.80
2022-12-11T13:42:57.116Z,17.10
2022-12-11T13:45:44.491Z,16.20
2022-12-11T13:48:27.599Z,16.40
2022-12-11T13:50:55.535Z,17.40
2022-12-11T13:53:23.062Z,18.30
2022-12-11T13:56:02.084Z,16.70
2022-12-11T13:58:30.411Z,15.90
2022-12-11T14:01:17.121Z,14.00
2022-12-11T14:03:55.561Z,17.00
2022-12-11T14:06:22.612Z,23.20
2022-12-11T14:11:34.418Z,15.90
2022-12-11T14:14:03.311Z,18.10
2022-12-11T14:16:30.347Z,14.30
2022-12-11T14:19:03.645Z,13.40
2022-12-11T14:21:31.611Z,16.90
2022-12-11T14:24:00.023Z,15.10
2022-12-11T14:26:34.169Z,17.50
2022-12-11T14:29:02.207Z,14.80
2022-12-11T14:31:33.336Z,16.50
2022-12-11T14:34:07.360Z,16.10
2022-12-11T14:36:34.766Z,18.70
2022-12-11T14:39:11.413Z,18.40
2022-12-11T14:41:48.442Z,16.60
2022-12-11T14:44:16.642Z,17.90
2022-12-11T14:46:49.492Z,16.50
2022-12-11T14:49:27.258Z,19.80
2022-12-11T14:51:54.970Z,20.00
2022-12-11T14:54:38.818Z,16.50
2022-12-11T14:57:06.214Z,18.00
2022-12-11T14:59:40.440Z,16.10
2022-12-11T15:02:24.691Z,19.80
2022-12-11T15:05:09.945Z,18.10
2022-12-11T15:10:03.940Z,19.80
2022-12-11T15:15:04.348Z,20.10
2022-12-11T15:17:32.725Z,18.70
2022-12-11T15:20:08.055Z,19.90
2022-12-11T15:22:35.528Z,21.70
2022-12-11T15:25:02.426Z,23.50
2022-12-11T15:27:37.745Z,19.60
2022-12-11T15:30:25.904Z,22.50
2022-12-11T15:33:10.970Z,23.20
2022-12-11T15:35:39.684Z,19.30
2022-12-11T15:38:06.437Z,22.80
2022-12-11T15:40:33.228Z,23.70
2022-12-11T15:43:01.718Z,18.00
2022-12-11T15:45:28.465Z,14.00
2022-12-11T15:47:55.730Z,19.70
2022-12-11T15:50:27.552Z,17.80
2022-12-11T15:52:55.722Z,18.40
2022-12-11T15:55:24.760Z,16.00
2022-12-11T15:57:52.989Z,17.30
2022-12-11T16:00:20.335Z,19.40
2022-12-11T16:02:47.270Z,18.40
2022-12-11T16:05:14.252Z,20.30
2022-12-11T16:07:41.326Z,19.60
2022-12-11T16:10:14.153Z,17.50
2022-12-11T16:12:41.519Z,17.50
2022-12-11T16:15:08.816Z,13.40
2022-12-11T16:17:35.668Z,23.30
2022-12-11T16:20:02.513Z,20.10
2022-12-11T16:22:28.951Z,19.50
2022-12-11T16:24:55.565Z,17.50
2022-12-11T16:27:23.330Z,18.20
2022-12-11T16:29:50.706Z,18.80
2022-12-11T16:32:18.110Z,20.40
2022-12-11T16:34:44.663Z,16.20
2022-12-11T16:37:12.421Z,18.60
2022-12-11T16:39:39.225Z,19.20
2022-12-11T16:42:06.255Z,24.20
2022-12-11T16:44:32.885Z,17.30
2022-12-11T16:46:59.300Z,15.00
2022-12-11T16:49:26.129Z,20.90
2022-12-11T16:51:52.671Z,18.90
2022-12-11T16:54:19.134Z,15.50
2022-12-11T16:56:45.784Z,15.60
2022-12-11T16:59:12.458Z,16.60
2022-12-11T17:01:38.988Z,18.30
2022-12-11T17:04:05.984Z,20.80
2022-12-11T17:06:32.599Z,20.40
2022-12-11T17:08:59.469Z,19.90
2022-12-11T17:11:26.587Z,16.80
2022-12-11T17:13:58.386Z,18.80
2022-12-11T17:16:28.622Z,21.60
2022-12-11T17:18:56.540Z,17.10
2022-12-11T17:21:23.473Z,23.00
2022-12-11T17:23:50.688Z,18.20
2022-12-11T17:28:44.594Z,17.80
2022-12-11T17:31:17.293Z,17.50
2022-12-11T17:33:45.097Z,20.50
2022-12-11T17:36:14.154Z,22.50
2022-12-11T17:38:41.288Z,17.10
2022-12-11T17:43:34.928Z,23.20
2022-12-11T17:46:01.630Z,22.20
2022-12-11T17:48:28.475Z,30.20
2022-12-11T17:50:55.293Z,19.80
2022-12-11T17:53:22.968Z,20.90
2022-12-11T17:55:51.254Z,23.30
2022-12-11T17:58:21.350Z,19.20
2022-12-11T18:00:50.997Z,25.80
2022-12-11T18:03:18.191Z,25.70
2022-12-11T18:08:20.690Z,24.10
2022-12-11T18:10:47.712Z,23.70
2022-12-11T18:13:14.380Z,26.40
2022-12-11T18:15:41.476Z,27.00
2022-12-11T18:20:34.757Z,23.70
2022-12-11T18:23:01.969Z,26.30
2022-12-11T18:25:28.752Z,19.20
2022-12-11T18:27:55.614Z,20.80
2022-12-11T18:30:23.961Z,30.30
2022-12-11T18:32:51.555Z,25.00
2022-12-11T18:35:18.885Z,23.00
2022-12-11T18:37:45.657Z,30.40
2022-12-11T18:40:12.222Z,28.80
2022-12-11T18:42:38.758Z,24.80
2022-12-11T18:45:06.445Z,23.00
2022-12-11T18:47:33.273Z,30.90
2022-12-11T18:50:05.585Z,26.80
2022-12-11T18:52:34.595Z,28.00
2022-12-11T18:55:01.407Z,25.90
2022-12-11T18:57:28.164Z,24.90
2022-12-11T18:59:55.506Z,31.20
2022-12-11T19:02:22.259Z,27.30
2022-12-11T19:04:48.930Z,31.50
2022-12-11T19:07:15.518Z,37.80
2022-12-11T19:09:47.533Z,28.90
2022-12-11T19:12:14.890Z,29.20
2022-12-11T19:14:41.680Z,27.20
2022-12-11T19:17:08.330Z,24.20
2022-12-11T19:19:35.613Z,25.20
2022-12-11T19:22:03.167Z,30.00
2022-12-11T19:24:29.807Z,28.90
2022-12-11T19:26:57.034Z,34.20
2022-12-11T19:29:27.328Z,31.10
2022-12-11T19:31:55.054Z,25.90
2022-12-11T19:34:22.645Z,28.40
2022-12-11T19:36:49.752Z,24.90
2022-12-11T19:41:42.750Z,29.80
2022-12-11T19:44:09.749Z,40.00
2022-12-11T19:46:36.626Z,31.40
2022-12-11T19:49:03.763Z,30.20
2022-12-11T19:54:10.636Z,28.40
2022-12-11T19:56:37.905Z,30.60
2022-12-11T20:01:35.848Z,25.70
2022-12-11T20:04:07.143Z,30.60
2022-12-11T20:06:36.186Z,30.40
2022-12-11T20:09:04.712Z,28.10
2022-12-11T20:11:32.479Z,30.90
2022-12-11T20:13:59.346Z,30.00
2022-12-11T20:16:46.379Z,34.50
2022-12-11T20:19:12.968Z,29.50
2022-12-11T20:21:39.556Z,36.70
2022-12-11T20:24:06.487Z,32.80
2022-12-11T20:26:35.904Z,27.70
2022-12-11T20:29:06.732Z,29.90
2022-12-11T20:31:33.724Z,32.20
2022-12-11T20:36:26.860Z,29.10
2022-12-11T20:38:53.387Z,31.30
2022-12-11T20:41:23.308Z,34.90
2022-12-11T20:43:52.670Z,27.10
2022-12-11T20:46:22.773Z,27.20
2022-12-11T20:48:50.216Z,28.50
2022-12-11T20:53:57.828Z,32.30
2022-12-11T20:56:27.505Z,29.80
2022-12-11T20:58:54.567Z,40.50
2022-12-11T21:01:22.937Z,31.80
2022-12-11T21:03:50.756Z,27.30
2022-12-11T21:06:24.756Z,30.80
2022-12-11T21:08:52.367Z,34.30
2022-12-11T21:11:19.701Z,28.00
2022-12-11T21:13:46.463Z,29.10
2022-12-11T21:16:12.929Z,30.50
2022-12-11T21:18:39.535Z,30.70
2022-12-11T21:21:06.382Z,32.30
2022-12-11T21:23:33.315Z,30.40
2022-12-11T21:26:00.091Z,32.20
2022-12-11T21:28:30.582Z,32.60
2022-12-11T21:31:05.109Z,28.00
2022-12-11T21:33:32.682Z,39.80
2022-12-11T21:35:59.469Z,31.40
2022-12-11T21:38:26.604Z,23.70
2022-12-11T21:40:54.245Z,33.70
2022-12-11T21:43:21.461Z,32.90
2022-12-11T21:46:04.645Z,32.60
2022-12-11T21:48:31.803Z,30.00
2022-12-11T21:51:10.299Z,31.70
2022-12-11T21:53:37.674Z,30.70
2022-12-11T21:56:12.232Z,29.60
2022-12-11T21:58:40.559Z,30.50
2022-12-11T22:01:18.751Z,29.70
2022-12-11T22:03:45.758Z,35.70
2022-12-11T22:06:12.350Z,29.90
2022-12-11T22:08:38.885Z,33.60
2022-12-11T22:11:06.068Z,36.00
2022-12-11T22:13:32.539Z,34.90
2022-12-11T22:15:59.166Z,31.60
2022-12-11T22:18:26.642Z,32.30
2022-12-11T22:20:57.293Z,31.80
2022-12-11T22:23:24.396Z,33.40
2022-12-11T22:28:17.883Z,30.90
2022-12-11T22:30:45.094Z,28.70
2022-12-11T22:33:16.748Z,39.70
2022-12-11T22:35:43.213Z,32.70
2022-12-11T22:38:09.769Z,32.70
2022-12-11T22:40:40.839Z,29.80
2022-12-11T22:43:07.374Z,37.20
2022-12-11T22:45:37.846Z,29.10
2022-12-11T22:48:05.581Z,30.40
2022-12-11T22:50:32.299Z,34.30
2022-12-11T22:52:58.798Z,31.30
2022-12-11T22:55:25.571Z,38.50
2022-12-11T22:57:51.987Z,33.40
2022-12-11T23:00:18.515Z,33.00
2022-12-11T23:02:45.875Z,40.90
2022-12-11T23:05:12.812Z,32.00
2022-12-11T23:07:39.558Z,34.50
2022-12-11T23:10:08.382Z,36.00
2022-12-11T23:12:35.673Z,31.70
2022-12-11T23:15:03.203Z,34.20
2022-12-11T23:17:29.912Z,34.70
2022-12-11T23:19:56.448Z,34.50
2022-12-11T23:22:22.910Z,36.00
2022-12-11T23:24:49.491Z,34.40
2022-12-11T23:27:15.978Z,30.40
2022-12-11T23:29:42.589Z,43.20
2022-12-11T23:32:09.655Z,35.70
2022-12-11T23:34:37.065Z,35.80
2022-12-11T23:37:03.569Z,37.00
2022-12-11T23:39:30.050Z,35.50
2022-12-11T23:41:56.485Z,29.40
2022-12-11T23:44:23.032Z,35.10
2022-12-11T23:46:49.417Z,32.70
2022-12-11T23:49:15.916Z,38.00
2022-12-11T23:51:42.374Z,33.60
2022-12-11T23:54:09.165Z,39.40
2022-12-11T23:56:35.769Z,34.30
2022-12-11T23:59:02.244Z,36.20
